Terminal Aerodrome Forecast
Issued by NWS Portland, ME

Home | Current Version | Previous Version | Text Only | Print | Product List | Glossary On
Versions: 1 2 3 4 5 6 7 8 9 10 11 12 13 14 15 16 17 18
417
FTUS41 KGYX 251720
TAFPWM
TAF
KPWM 251720Z 2518/2618 15010KT P6SM SCT050 BKN250
     FM252300 VRB04KT P6SM -SHRA SCT050 BKN070 OVC100
     FM260200 VRB03KT 4SM BR BKN015 OVC025
     FM260900 26005KT P6SM SCT030 SCT120
     FM261300 27008G18KT P6SM SCT040=

USA.gov is the U.S. government's official web portal to all federal, state and local government web resources and services.